sensor_id;sensor_type;location;lat;lon;timestamp;P1;durP1;ratioP1;P2;durP2;ratioP2
73699;SDS011;62005;50.082;8.988;2022-12-11T00:01:34;21.25;;;8.65;;
73699;SDS011;62005;50.082;8.988;2022-12-11T00:04:28;21.60;;;9.38;;
73699;SDS011;62005;50.082;8.988;2022-12-11T00:07:00;21.85;;;9.02;;
73699;SDS011;62005;50.082;8.988;2022-12-11T00:09:28;18.48;;;8.05;;
73699;SDS011;62005;50.082;8.988;2022-12-11T00:12:02;18.42;;;8.80;;
73699;SDS011;62005;50.082;8.988;2022-12-11T00:14:42;18.63;;;8.38;;
73699;SDS011;62005;50.082;8.988;2022-12-11T00:17:12;16.50;;;7.40;;
73699;SDS011;62005;50.082;8.988;2022-12-11T00:19:51;17.30;;;8.05;;
73699;SDS011;62005;50.082;8.988;2022-12-11T00:22:16;20.35;;;9.30;;
73699;SDS011;62005;50.082;8.988;2022-12-11T00:24:42;16.10;;;7.70;;
73699;SDS011;62005;50.082;8.988;2022-12-11T00:27:07;22.03;;;10.17;;
73699;SDS011;62005;50.082;8.988;2022-12-11T00:29:32;16.57;;;6.80;;
73699;SDS011;62005;50.082;8.988;2022-12-11T00:31:58;18.17;;;7.07;;
73699;SDS011;62005;50.082;8.988;2022-12-11T00:34:23;20.03;;;7.60;;
73699;SDS011;62005;50.082;8.988;2022-12-11T00:36:48;19.47;;;9.63;;
73699;SDS011;62005;50.082;8.988;2022-12-11T00:39:14;18.00;;;8.80;;
73699;SDS011;62005;50.082;8.988;2022-12-11T00:41:39;19.50;;;9.57;;
73699;SDS011;62005;50.082;8.988;2022-12-11T00:44:07;16.43;;;7.53;;
73699;SDS011;62005;50.082;8.988;2022-12-11T00:46:32;17.50;;;8.52;;
73699;SDS011;62005;50.082;8.988;2022-12-11T00:48:57;18.83;;;9.07;;
73699;SDS011;62005;50.082;8.988;2022-12-11T00:51:23;16.90;;;7.27;;
73699;SDS011;62005;50.082;8.988;2022-12-11T00:53:49;17.38;;;7.40;;
73699;SDS011;62005;50.082;8.988;2022-12-11T00:56:16;16.87;;;7.83;;
73699;SDS011;62005;50.082;8.988;2022-12-11T00:58:44;15.80;;;8.52;;
73699;SDS011;62005;50.082;8.988;2022-12-11T01:01:20;20.88;;;9.15;;
73699;SDS011;62005;50.082;8.988;2022-12-11T01:03:47;17.60;;;7.93;;
73699;SDS011;62005;50.082;8.988;2022-12-11T01:06:17;16.30;;;8.30;;
73699;SDS011;62005;50.082;8.988;2022-12-11T01:08:45;14.20;;;7.70;;
73699;SDS011;62005;50.082;8.988;2022-12-11T01:11:12;18.17;;;8.05;;
73699;SDS011;62005;50.082;8.988;2022-12-11T01:16:09;15.30;;;7.40;;
73699;SDS011;62005;50.082;8.988;2022-12-11T01:21:54;17.08;;;7.80;;
73699;SDS011;62005;50.082;8.988;2022-12-11T01:28:00;15.48;;;7.28;;
73699;SDS011;62005;50.082;8.988;2022-12-11T01:34:15;16.75;;;7.60;;
73699;SDS011;62005;50.082;8.988;2022-12-11T01:47:48;13.32;;;7.03;;
73699;SDS011;62005;50.082;8.988;2022-12-11T01:50:44;16.92;;;7.35;;
73699;SDS011;62005;50.082;8.988;2022-12-11T01:56:10;18.77;;;7.90;;
73699;SDS011;62005;50.082;8.988;2022-12-11T01:58:44;17.40;;;7.70;;
73699;SDS011;62005;50.082;8.988;2022-12-11T02:01:45;19.35;;;8.48;;
73699;SDS011;62005;50.082;8.988;2022-12-11T02:04:21;15.38;;;7.05;;
73699;SDS011;62005;50.082;8.988;2022-12-11T02:07:32;15.18;;;7.85;;
73699;SDS011;62005;50.082;8.988;2022-12-11T02:10:12;17.10;;;7.20;;
73699;SDS011;62005;50.082;8.988;2022-12-11T02:13:13;19.17;;;7.65;;
73699;SDS011;62005;50.082;8.988;2022-12-11T02:21:02;15.05;;;7.80;;
73699;SDS011;62005;50.082;8.988;2022-12-11T02:23:42;22.05;;;7.43;;
73699;SDS011;62005;50.082;8.988;2022-12-11T02:29:17;14.52;;;6.70;;
73699;SDS011;62005;50.082;8.988;2022-12-11T02:31:52;15.57;;;7.85;;
73699;SDS011;62005;50.082;8.988;2022-12-11T02:34:31;14.90;;;7.28;;
73699;SDS011;62005;50.082;8.988;2022-12-11T02:37:04;17.98;;;9.07;;
73699;SDS011;62005;50.082;8.988;2022-12-11T02:39:35;18.02;;;7.45;;
73699;SDS011;62005;50.082;8.988;2022-12-11T02:42:04;14.60;;;7.30;;
73699;SDS011;62005;50.082;8.988;2022-12-11T02:48:00;13.98;;;6.78;;
73699;SDS011;62005;50.082;8.988;2022-12-11T02:50:47;17.23;;;7.68;;
73699;SDS011;62005;50.082;8.988;2022-12-11T02:53:20;19.52;;;9.63;;
73699;SDS011;62005;50.082;8.988;2022-12-11T02:55:49;16.08;;;8.15;;
73699;SDS011;62005;50.082;8.988;2022-12-11T02:58:21;16.95;;;8.57;;
73699;SDS011;62005;50.082;8.988;2022-12-11T03:00:50;14.98;;;6.57;;
73699;SDS011;62005;50.082;8.988;2022-12-11T03:03:16;18.77;;;9.07;;
73699;SDS011;62005;50.082;8.988;2022-12-11T03:05:41;17.48;;;9.43;;
73699;SDS011;62005;50.082;8.988;2022-12-11T03:08:07;17.33;;;8.52;;
73699;SDS011;62005;50.082;8.988;2022-12-11T03:10:33;23.83;;;9.50;;
73699;SDS011;62005;50.082;8.988;2022-12-11T03:12:58;18.63;;;8.73;;
73699;SDS011;62005;50.082;8.988;2022-12-11T03:15:30;20.38;;;8.82;;
73699;SDS011;62005;50.082;8.988;2022-12-11T03:18:05;20.77;;;8.70;;
73699;SDS011;62005;50.082;8.988;2022-12-11T03:20:40;19.10;;;8.23;;
73699;SDS011;62005;50.082;8.988;2022-12-11T03:25:54;16.85;;;8.48;;
73699;SDS011;62005;50.082;8.988;2022-12-11T03:28:31;18.60;;;8.10;;
73699;SDS011;62005;50.082;8.988;2022-12-11T03:31:38;17.52;;;8.40;;
73699;SDS011;62005;50.082;8.988;2022-12-11T03:34:12;16.98;;;8.75;;
73699;SDS011;62005;50.082;8.988;2022-12-11T03:36:43;20.58;;;8.73;;
73699;SDS011;62005;50.082;8.988;2022-12-11T03:41:39;17.42;;;7.85;;
73699;SDS011;62005;50.082;8.988;2022-12-11T03:44:08;15.68;;;7.80;;
73699;SDS011;62005;50.082;8.988;2022-12-11T03:46:37;18.02;;;9.45;;
73699;SDS011;62005;50.082;8.988;2022-12-11T03:49:06;17.90;;;7.90;;
73699;SDS011;62005;50.082;8.988;2022-12-11T03:51:36;15.50;;;8.52;;
73699;SDS011;62005;50.082;8.988;2022-12-11T03:54:02;16.67;;;8.93;;
73699;SDS011;62005;50.082;8.988;2022-12-11T03:56:29;18.98;;;10.20;;
73699;SDS011;62005;50.082;8.988;2022-12-11T03:58:58;19.02;;;8.80;;
73699;SDS011;62005;50.082;8.988;2022-12-11T04:01:23;16.37;;;7.33;;
73699;SDS011;62005;50.082;8.988;2022-12-11T04:03:48;19.17;;;7.90;;
73699;SDS011;62005;50.082;8.988;2022-12-11T04:06:14;17.77;;;8.00;;
73699;SDS011;62005;50.082;8.988;2022-12-11T04:08:39;23.57;;;9.93;;
73699;SDS011;62005;50.082;8.988;2022-12-11T04:11:04;22.20;;;10.80;;
73699;SDS011;62005;50.082;8.988;2022-12-11T04:13:48;20.00;;;7.95;;
73699;SDS011;62005;50.082;8.988;2022-12-11T04:16:36;18.85;;;7.68;;
73699;SDS011;62005;50.082;8.988;2022-12-11T04:19:02;21.30;;;8.48;;
73699;SDS011;62005;50.082;8.988;2022-12-11T04:21:47;18.73;;;6.53;;
73699;SDS011;62005;50.082;8.988;2022-12-11T04:24:31;16.10;;;9.20;;
73699;SDS011;62005;50.082;8.988;2022-12-11T04:26:56;14.63;;;7.40;;
73699;SDS011;62005;50.082;8.988;2022-12-11T04:29:27;18.48;;;7.93;;
73699;SDS011;62005;50.082;8.988;2022-12-11T04:32:08;26.25;;;9.88;;
73699;SDS011;62005;50.082;8.988;2022-12-11T04:34:45;18.23;;;7.53;;
73699;SDS011;62005;50.082;8.988;2022-12-11T04:37:22;15.48;;;8.10;;
73699;SDS011;62005;50.082;8.988;2022-12-11T04:39:53;14.18;;;7.13;;
73699;SDS011;62005;50.082;8.988;2022-12-11T04:42:18;17.10;;;7.93;;
73699;SDS011;62005;50.082;8.988;2022-12-11T04:44:47;19.83;;;7.63;;
73699;SDS011;62005;50.082;8.988;2022-12-11T04:47:12;21.48;;;7.80;;
73699;SDS011;62005;50.082;8.988;2022-12-11T04:49:40;17.08;;;8.02;;
73699;SDS011;62005;50.082;8.988;2022-12-11T04:52:16;15.25;;;7.50;;
73699;SDS011;62005;50.082;8.988;2022-12-11T04:55:00;18.60;;;7.85;;
73699;SDS011;62005;50.082;8.988;2022-12-11T04:57:41;19.42;;;8.55;;
73699;SDS011;62005;50.082;8.988;2022-12-11T05:00:18;18.23;;;7.90;;
73699;SDS011;62005;50.082;8.988;2022-12-11T05:02:46;19.13;;;8.73;;
73699;SDS011;62005;50.082;8.988;2022-12-11T05:11:16;17.00;;;7.10;;
73699;SDS011;62005;50.082;8.988;2022-12-11T05:14:09;18.98;;;7.63;;
73699;SDS011;62005;50.082;8.988;2022-12-11T05:17:09;17.63;;;7.95;;
73699;SDS011;62005;50.082;8.988;2022-12-11T05:19:50;18.63;;;7.75;;
73699;SDS011;62005;50.082;8.988;2022-12-11T05:22:18;17.30;;;8.82;;
73699;SDS011;62005;50.082;8.988;2022-12-11T05:24:49;21.50;;;7.75;;
73699;SDS011;62005;50.082;8.988;2022-12-11T05:30:16;18.35;;;8.63;;
73699;SDS011;62005;50.082;8.988;2022-12-11T05:32:49;17.30;;;7.78;;
73699;SDS011;62005;50.082;8.988;2022-12-11T05:35:34;16.73;;;8.50;;
73699;SDS011;62005;50.082;8.988;2022-12-11T05:40:41;19.05;;;8.65;;
73699;SDS011;62005;50.082;8.988;2022-12-11T05:43:17;17.50;;;8.27;;
73699;SDS011;62005;50.082;8.988;2022-12-11T05:45:44;18.83;;;9.60;;
73699;SDS011;62005;50.082;8.988;2022-12-11T05:48:13;19.27;;;8.13;;
73699;SDS011;62005;50.082;8.988;2022-12-11T05:50:55;22.30;;;9.05;;
73699;SDS011;62005;50.082;8.988;2022-12-11T05:53:24;20.10;;;8.57;;
73699;SDS011;62005;50.082;8.988;2022-12-11T05:55:49;18.43;;;8.20;;
73699;SDS011;62005;50.082;8.988;2022-12-11T05:58:15;19.60;;;8.70;;
73699;SDS011;62005;50.082;8.988;2022-12-11T06:00:40;20.73;;;10.57;;
73699;SDS011;62005;50.082;8.988;2022-12-11T06:03:06;18.70;;;8.38;;
73699;SDS011;62005;50.082;8.988;2022-12-11T06:05:36;18.47;;;8.53;;
73699;SDS011;62005;50.082;8.988;2022-12-11T06:08:02;20.33;;;8.77;;
73699;SDS011;62005;50.082;8.988;2022-12-11T06:10:27;17.73;;;8.57;;
73699;SDS011;62005;50.082;8.988;2022-12-11T06:12:52;17.90;;;8.57;;
73699;SDS011;62005;50.082;8.988;2022-12-11T06:15:17;19.67;;;9.23;;
73699;SDS011;62005;50.082;8.988;2022-12-11T06:17:48;19.67;;;8.73;;
73699;SDS011;62005;50.082;8.988;2022-12-11T06:20:34;18.48;;;8.63;;
73699;SDS011;62005;50.082;8.988;2022-12-11T06:22:59;16.88;;;8.00;;
73699;SDS011;62005;50.082;8.988;2022-12-11T06:25:25;20.90;;;8.98;;
73699;SDS011;62005;50.082;8.988;2022-12-11T06:27:57;19.60;;;8.02;;
73699;SDS011;62005;50.082;8.988;2022-12-11T06:30:23;17.20;;;7.53;;
73699;SDS011;62005;50.082;8.988;2022-12-11T06:32:48;18.00;;;8.23;;
73699;SDS011;62005;50.082;8.988;2022-12-11T06:35:16;19.10;;;9.53;;
73699;SDS011;62005;50.082;8.988;2022-12-11T06:38:47;18.58;;;10.68;;
73699;SDS011;62005;50.082;8.988;2022-12-11T06:41:24;20.95;;;10.00;;
73699;SDS011;62005;50.082;8.988;2022-12-11T06:46:51;17.85;;;9.02;;
73699;SDS011;62005;50.082;8.988;2022-12-11T06:52:11;21.02;;;9.30;;
73699;SDS011;62005;50.082;8.988;2022-12-11T06:54:45;20.00;;;8.63;;
73699;SDS011;62005;50.082;8.988;2022-12-11T06:57:25;17.33;;;7.53;;
73699;SDS011;62005;50.082;8.988;2022-12-11T07:00:08;18.17;;;8.68;;
73699;SDS011;62005;50.082;8.988;2022-12-11T07:05:48;16.08;;;7.78;;
73699;SDS011;62005;50.082;8.988;2022-12-11T07:08:43;15.77;;;7.45;;
73699;SDS011;62005;50.082;8.988;2022-12-11T07:11:19;16.10;;;7.53;;
73699;SDS011;62005;50.082;8.988;2022-12-11T07:14:02;16.25;;;7.72;;
73699;SDS011;62005;50.082;8.988;2022-12-11T07:16:43;17.38;;;7.85;;
73699;SDS011;62005;50.082;8.988;2022-12-11T07:19:25;14.65;;;7.22;;
73699;SDS011;62005;50.082;8.988;2022-12-11T07:22:05;17.20;;;9.43;;
73699;SDS011;62005;50.082;8.988;2022-12-11T07:24:31;15.32;;;7.10;;
73699;SDS011;62005;50.082;8.988;2022-12-11T07:26:59;16.00;;;6.68;;
73699;SDS011;62005;50.082;8.988;2022-12-11T07:29:36;17.67;;;6.82;;
73699;SDS011;62005;50.082;8.988;2022-12-11T07:34:40;16.08;;;6.88;;
73699;SDS011;62005;50.082;8.988;2022-12-11T07:37:17;19.60;;;6.90;;
73699;SDS011;62005;50.082;8.988;2022-12-11T07:39:46;16.40;;;6.97;;
73699;SDS011;62005;50.082;8.988;2022-12-11T07:48:56;15.23;;;7.75;;
73699;SDS011;62005;50.082;8.988;2022-12-11T07:52:12;15.65;;;7.28;;
73699;SDS011;62005;50.082;8.988;2022-12-11T07:58:22;15.77;;;8.27;;
73699;SDS011;62005;50.082;8.988;2022-12-11T08:59:57;18.90;;;9.90;;
73699;SDS011;62005;50.082;8.988;2022-12-11T09:03:25;19.13;;;9.27;;
73699;SDS011;62005;50.082;8.988;2022-12-11T09:18:56;18.30;;;7.38;;
73699;SDS011;62005;50.082;8.988;2022-12-11T09:21:48;16.80;;;7.15;;
73699;SDS011;62005;50.082;8.988;2022-12-11T09:25:06;16.67;;;8.00;;
73699;SDS011;62005;50.082;8.988;2022-12-11T09:27:33;17.40;;;8.13;;
73699;SDS011;62005;50.082;8.988;2022-12-11T09:30:00;16.52;;;8.00;;
73699;SDS011;62005;50.082;8.988;2022-12-11T09:32:28;16.75;;;7.07;;
73699;SDS011;62005;50.082;8.988;2022-12-11T09:44:33;17.60;;;7.43;;
73699;SDS011;62005;50.082;8.988;2022-12-11T09:50:54;16.92;;;7.38;;
73699;SDS011;62005;50.082;8.988;2022-12-11T10:22:38;21.30;;;9.98;;
73699;SDS011;62005;50.082;8.988;2022-12-11T11:34:27;17.33;;;10.07;;
73699;SDS011;62005;50.082;8.988;2022-12-11T11:50:44;14.25;;;7.68;;
73699;SDS011;62005;50.082;8.988;2022-12-11T12:37:42;12.55;;;6.30;;
73699;SDS011;62005;50.082;8.988;2022-12-11T12:40:28;15.95;;;7.13;;
73699;SDS011;62005;50.082;8.988;2022-12-11T13:10:42;13.25;;;5.45;;
73699;SDS011;62005;50.082;8.988;2022-12-11T13:50:55;14.13;;;5.38;;
73699;SDS011;62005;50.082;8.988;2022-12-11T14:21:01;17.17;;;8.63;;
73699;SDS011;62005;50.082;8.988;2022-12-11T14:51:09;19.55;;;10.27;;
73699;SDS011;62005;50.082;8.988;2022-12-11T14:53:46;19.90;;;9.30;;
73699;SDS011;62005;50.082;8.988;2022-12-11T15:21:26;17.65;;;9.10;;
73699;SDS011;62005;50.082;8.988;2022-12-11T15:24:02;20.58;;;8.98;;
73699;SDS011;62005;50.082;8.988;2022-12-11T15:50:31;19.75;;;9.85;;
73699;SDS011;62005;50.082;8.988;2022-12-11T16:21:11;21.48;;;10.23;;
73699;SDS011;62005;50.082;8.988;2022-12-11T17:23:57;19.20;;;9.50;;
73699;SDS011;62005;50.082;8.988;2022-12-11T17:26:22;24.88;;;10.40;;
73699;SDS011;62005;50.082;8.988;2022-12-11T18:21:20;18.00;;;9.90;;
73699;SDS011;62005;50.082;8.988;2022-12-11T18:54:39;21.77;;;10.45;;
73699;SDS011;62005;50.082;8.988;2022-12-11T18:57:05;19.45;;;9.70;;
73699;SDS011;62005;50.082;8.988;2022-12-11T19:20:58;29.00;;;13.73;;
73699;SDS011;62005;50.082;8.988;2022-12-11T19:56:38;32.42;;;15.13;;
73699;SDS011;62005;50.082;8.988;2022-12-11T19:59:05;32.85;;;16.35;;
73699;SDS011;62005;50.082;8.988;2022-12-11T20:17:05;27.20;;;13.80;;
73699;SDS011;62005;50.082;8.988;2022-12-11T20:25:31;26.33;;;13.10;;
73699;SDS011;62005;50.082;8.988;2022-12-11T20:28:03;32.63;;;14.80;;
73699;SDS011;62005;50.082;8.988;2022-12-11T20:33:58;32.15;;;15.32;;
73699;SDS011;62005;50.082;8.988;2022-12-11T20:39:45;29.27;;;13.90;;
73699;SDS011;62005;50.082;8.988;2022-12-11T20:50:45;35.25;;;17.95;;
73699;SDS011;62005;50.082;8.988;2022-12-11T21:31:10;26.15;;;12.50;;
73699;SDS011;62005;50.082;8.988;2022-12-11T21:37:08;28.70;;;13.80;;
73699;SDS011;62005;50.082;8.988;2022-12-11T21:39:34;26.60;;;12.98;;
73699;SDS011;62005;50.082;8.988;2022-12-11T21:42:19;27.27;;;12.57;;
73699;SDS011;62005;50.082;8.988;2022-12-11T21:45:23;29.33;;;13.48;;
73699;SDS011;62005;50.082;8.988;2022-12-11T21:51:16;31.77;;;13.32;;
73699;SDS011;62005;50.082;8.988;2022-12-11T22:04:06;26.60;;;12.93;;
73699;SDS011;62005;50.082;8.988;2022-12-11T22:10:34;29.20;;;12.90;;
73699;SDS011;62005;50.082;8.988;2022-12-11T22:13:17;27.23;;;12.05;;
73699;SDS011;62005;50.082;8.988;2022-12-11T23:37:46;27.02;;;10.93;;
73699;SDS011;62005;50.082;8.988;2022-12-11T23:50:42;26.80;;;11.88;;
73699;SDS011;62005;50.082;8.988;2022-12-11T23:56:53;27.02;;;12.60;;
